Time;durP1;ratioP1;P1;durP2;ratioP2;P2;SDS_P1;SDS_P2;PMS_P1;PMS_P2;Temp;Humidity;BMP_temperature;BMP_pressure;BME280_temperature;BME280_humidity;BME280_pressure;Samples;Min_cycle;Max_cycle;Signal;HPM_P1;HPM_P2
2023/11/18 00:00:26;;;;;;;3.72;2.22;;;;;;;13.95;57.95;97781.19;4971883;28;20085;-79
2023/11/18 00:02:52;;;;;;;4.00;2.30;;;;;;;13.93;57.87;97802.31;4987348;28;20077;-79
2023/11/18 00:05:17;;;;;;;4.00;2.50;;;;;;;13.86;58.05;97790.00;4987570;28;20042;-82
2023/11/18 00:07:43;;;;;;;4.32;2.40;;;;;;;13.89;58.17;97802.81;4955015;28;20193;-79
2023/11/18 00:10:09;;;;;;;5.50;2.20;;;;;;;13.87;58.15;97800.34;4987461;28;20461;-77
2023/11/18 00:12:35;;;;;;;3.47;2.30;;;;;;;13.90;58.11;97807.09;4971620;28;20121;-78
2023/11/18 00:15:04;;;;;;;4.20;2.05;;;;;;;13.86;58.02;97796.06;4971256;28;20039;-77
2023/11/18 00:17:30;;;;;;;6.32;2.33;;;;;;;13.89;58.00;97784.44;4971546;28;20086;-78
2023/11/18 00:19:56;;;;;;;4.00;2.08;;;;;;;13.86;58.08;97784.75;4971485;28;20069;-79
2023/11/18 00:22:21;;;;;;;3.85;1.95;;;;;;;13.86;57.97;97787.38;4971232;28;20463;-80
2023/11/18 00:24:47;;;;;;;3.35;1.80;;;;;;;13.89;58.05;97792.31;4971174;28;20039;-76
2023/11/18 00:27:14;;;;;;;2.72;1.77;;;;;;;13.81;57.99;97768.69;4970756;28;20058;-82
2023/11/18 00:29:40;;;;;;;3.00;1.98;;;;;;;13.86;57.88;97797.88;4970760;28;20037;-79
2023/11/18 00:32:06;;;;;;;4.60;1.95;;;;;;;13.86;57.98;97782.13;4972858;28;20109;-80
2023/11/18 00:34:35;;;;;;;3.25;1.83;;;;;;;13.85;58.20;97794.44;4968889;28;20133;-79
2023/11/18 00:37:01;;;;;;;3.67;2.47;;;;;;;13.84;57.84;97799.84;4968004;28;20492;-89
2023/11/18 00:39:26;;;;;;;5.93;2.17;;;;;;;13.84;57.66;97786.75;4952591;28;20039;-91
2023/11/18 00:41:52;;;;;;;4.22;2.60;;;;;;;13.82;57.86;97797.38;4952061;28;20067;-85
2023/11/18 00:44:18;;;;;;;4.20;2.47;;;;;;;13.84;57.57;97812.97;4952648;29;20027;-84
2023/11/18 00:46:44;;;;;;;4.78;2.60;;;;;;;13.77;57.68;97801.47;4952412;28;20082;-81
2023/11/18 00:49:11;;;;;;;4.43;2.70;;;;;;;13.81;57.87;97818.53;4968670;28;20023;-76
2023/11/18 00:51:37;;;;;;;4.35;2.38;;;;;;;13.75;57.70;97809.50;4968469;28;20031;-76
2023/11/18 00:54:05;;;;;;;4.68;2.78;;;;;;;13.81;57.76;97808.03;4952837;29;20047;-76
2023/11/18 00:56:31;;;;;;;4.30;2.45;;;;;;;13.80;57.88;97793.28;4952808;29;20522;-76
2023/11/18 00:58:57;;;;;;;5.15;2.13;;;;;;;13.74;57.59;97786.84;4953875;28;20460;-77
2023/11/18 01:01:22;;;;;;;4.45;2.33;;;;;;;13.79;57.58;97797.72;4969157;28;20113;-76
2023/11/18 01:03:47;;;;;;;4.60;2.58;;;;;;;13.79;57.64;97796.88;4968823;28;20127;-77
2023/11/18 01:06:15;;;;;;;3.55;2.13;;;;;;;13.75;57.37;97793.75;4953749;28;20475;-77
2023/11/18 01:08:43;;;;;;;3.78;2.38;;;;;;;13.74;57.43;97799.97;4936696;29;20026;-77
2023/11/18 01:11:09;;;;;;;4.28;2.40;;;;;;;13.74;57.65;97786.84;4936403;29;20433;-76
2023/11/18 01:13:35;;;;;;;2.72;1.95;;;;;;;13.77;57.44;97791.78;4952753;28;20049;-76
2023/11/18 01:16:01;;;;;;;4.78;2.25;;;;;;;13.72;57.21;97787.00;4952596;29;20484;-76
2023/11/18 01:18:27;;;;;;;3.70;2.20;;;;;;;13.72;57.40;97778.34;4969520;28;20031;-76
2023/11/18 01:20:53;;;;;;;5.00;2.33;;;;;;;13.76;57.36;97777.03;4955604;28;20091;-76
2023/11/18 01:23:18;;;;;;;3.50;1.88;;;;;;;13.72;57.43;97776.53;4955918;29;20039;-76
2023/11/18 01:25:44;;;;;;;4.10;2.10;;;;;;;13.67;57.09;97773.56;4939730;29;20114;-76
2023/11/18 01:28:09;;;;;;;3.92;2.00;;;;;;;13.71;57.27;97779.31;4955658;29;20035;-76
2023/11/18 01:30:36;;;;;;;3.30;1.85;;;;;;;13.73;56.98;97777.38;4971771;28;20071;-76
2023/11/18 01:33:01;;;;;;;3.53;1.92;;;;;;;13.72;57.22;97767.84;4971851;28;20398;-76
2023/11/18 01:35:27;;;;;;;3.38;1.80;;;;;;;13.71;57.12;97758.31;4955520;28;20031;-76
2023/11/18 01:37:57;;;;;;;3.40;1.70;;;;;;;13.68;56.84;97748.19;4955729;29;20031;-76
2023/11/18 01:40:23;;;;;;;3.58;1.58;;;;;;;13.66;56.80;97743.09;4955826;29;20494;-76
2023/11/18 01:42:49;;;;;;;4.57;1.67;;;;;;;13.68;57.07;97741.13;4971365;28;20542;-76
2023/11/18 01:45:16;;;;;;;2.63;1.55;;;;;;;13.65;56.83;97749.31;4971588;28;20035;-75
2023/11/18 01:47:42;;;;;;;1.90;1.33;;;;;;;13.64;56.95;97752.91;4971377;28;20023;-76
2023/11/18 01:50:08;;;;;;;2.30;1.40;;;;;;;13.66;56.88;97776.34;4955446;28;20047;-76
2023/11/18 01:52:34;;;;;;;3.03;1.50;;;;;;;13.67;56.67;97791.13;4971200;28;20039;-76
2023/11/18 01:54:59;;;;;;;3.22;1.52;;;;;;;13.65;56.75;97786.03;4971036;28;20034;-76
2023/11/18 01:57:26;;;;;;;2.63;1.55;;;;;;;13.61;56.82;97782.06;4971229;28;20086;-76
2023/11/18 01:59:53;;;;;;;2.72;1.60;;;;;;;13.65;56.88;97778.16;4939696;29;20043;-76
2023/11/18 02:02:20;;;;;;;2.08;1.30;;;;;;;13.63;56.89;97767.03;4956293;28;20446;-76
2023/11/18 02:04:46;;;;;;;2.40;1.35;;;;;;;13.63;56.91;97767.03;4955012;28;20430;-76
2023/11/18 02:07:14;;;;;;;2.38;1.40;;;;;;;13.62;56.78;97757.50;4954953;28;20036;-76
2023/11/18 02:09:40;;;;;;;3.20;1.40;;;;;;;13.55;56.69;97759.94;4970754;28;20074;-76
2023/11/18 02:12:27;;;;;;;5.18;1.35;;;;;;;13.62;57.04;97777.66;4954918;28;20462;-76
2023/11/18 02:14:53;;;;;;;3.50;1.45;;;;;;;13.60;57.31;97779.59;4971054;28;20107;-76
2023/11/18 02:17:24;;;;;;;2.90;1.20;;;;;;;13.57;56.84;97775.53;4970904;28;20031;-76
2023/11/18 02:19:53;;;;;;;1.70;1.10;;;;;;;13.56;57.11;97764.19;4939643;29;20520;-76
2023/11/18 02:22:18;;;;;;;1.80;1.20;;;;;;;13.54;56.82;97755.69;4970292;28;20059;-76
2023/11/18 02:24:44;;;;;;;1.88;1.13;;;;;;;13.53;57.00;97769.75;4970690;28;20090;-77
2023/11/18 02:27:11;;;;;;;3.08;1.00;;;;;;;13.52;57.07;97762.03;4954722;29;20046;-76
2023/11/18 02:29:41;;;;;;;1.83;1.13;;;;;;;13.52;56.84;97748.94;4969727;28;20094;-76
2023/11/18 02:32:30;;;;;;;2.40;1.35;;;;;;;13.50;56.81;97746.47;4954606;29;20035;-76
2023/11/18 02:35:10;;;;;;;2.65;1.05;;;;;;;13.46;56.45;97734.69;4956161;28;20027;-76
2023/11/18 02:37:38;;;;;;;2.08;1.20;;;;;;;13.44;56.28;97730.56;4953556;28;20057;-76
2023/11/18 02:40:14;;;;;;;1.70;1.00;;;;;;;13.41;56.05;97715.16;4970419;28;20039;-76
2023/11/18 02:42:44;;;;;;;2.17;1.23;;;;;;;13.34;56.15;97712.38;4969336;28;20094;-76
2023/11/18 02:45:12;;;;;;;2.22;1.25;;;;;;;13.38;56.13;97732.06;4954421;28;20027;-76
2023/11/18 02:47:38;;;;;;;;;;;;;;;13.35;55.92;97712.22;4970735;28;20494;-76
2023/11/18 02:50:10;;;;;;;2.45;1.20;;;;;;;13.26;55.65;97702.66;4966640;28;19914;-76
2023/11/18 02:52:37;;;;;;;2.20;1.20;;;;;;;13.28;55.47;97718.22;4989166;28;20031;-76
2023/11/18 02:55:07;;;;;;;2.10;1.33;;;;;;;13.25;55.52;97729.84;4989637;28;20042;-76
2023/11/18 02:57:32;;;;;;;2.50;1.40;;;;;;;13.24;55.36;97738.69;4989490;28;20038;-76
2023/11/18 03:00:00;;;;;;;3.97;1.90;;;;;;;13.19;54.98;97739.16;4973943;28;20034;-76
2023/11/18 03:02:29;;;;;;;2.38;1.30;;;;;;;13.23;54.80;97746.69;4989378;28;20031;-76
2023/11/18 03:04:55;;;;;;;3.10;1.83;;;;;;;13.20;54.70;97750.44;4989106;28;20035;-76
2023/11/18 03:07:20;;;;;;;3.15;1.50;;;;;;;13.19;54.56;97762.75;4973487;28;20065;-76
2023/11/18 03:09:46;;;;;;;3.13;1.50;;;;;;;13.17;54.30;97762.09;4973196;28;20046;-77
2023/11/18 03:12:12;;;;;;;2.78;1.35;;;;;;;13.13;54.34;97749.44;4973199;28;20062;-77
2023/11/18 03:14:38;;;;;;;2.92;1.50;;;;;;;13.11;53.95;97738.28;4989834;28;20097;-77
2023/11/18 03:17:06;;;;;;;2.17;1.27;;;;;;;13.14;54.07;97732.72;4989502;28;20070;-78
2023/11/18 03:19:34;;;;;;;2.42;1.00;;;;;;;13.15;54.06;97731.75;4957505;28;20112;-78
2023/11/18 03:22:03;;;;;;;2.25;1.13;;;;;;;13.14;53.67;97732.72;4972685;28;20051;-76
2023/11/18 03:24:29;;;;;;;2.33;1.27;;;;;;;13.13;53.45;97723.25;4988817;28;20097;-79
2023/11/18 03:26:57;;;;;;;1.60;1.08;;;;;;;13.08;53.32;97718.47;4974239;28;20059;-78
2023/11/18 03:29:23;;;;;;;2.90;1.10;;;;;;;13.11;53.35;97723.41;4989547;28;20030;-78
2023/11/18 03:31:49;;;;;;;1.85;1.10;;;;;;;13.10;53.03;97703.41;4974119;28;20488;-78
2023/11/18 03:34:16;;;;;;;1.77;1.08;;;;;;;13.05;53.02;97689.16;4972867;28;20105;-78
2023/11/18 03:36:41;;;;;;;1.70;1.00;;;;;;;13.07;52.94;97679.34;4988817;28;20041;-79
2023/11/18 03:39:07;;;;;;;1.48;1.00;;;;;;;13.02;52.97;97670.16;4972659;28;20039;-78
2023/11/18 03:41:32;;;;;;;2.13;1.10;;;;;;;13.02;52.68;97685.88;4972390;28;20102;-77
2023/11/18 03:43:58;;;;;;;2.10;0.70;;;;;;;13.04;52.46;97693.56;4989324;28;20038;-78
2023/11/18 03:46:23;;;;;;;2.00;1.00;;;;;;;13.03;52.53;97698.00;4972709;28;20478;-78
2023/11/18 03:48:49;;;;;;;2.30;0.80;;;;;;;13.03;52.36;97694.56;4972884;28;20482;-78
2023/11/18 03:51:17;;;;;;;1.30;0.77;;;;;;;13.02;52.24;97690.28;4988630;28;20041;-79
2023/11/18 03:53:42;;;;;;;1.20;0.68;;;;;;;13.02;51.99;97690.28;4956865;28;20038;-78
2023/11/18 03:56:08;;;;;;;1.60;0.70;;;;;;;12.98;51.92;97692.41;4988731;28;20038;-78
2023/11/18 03:58:34;;;;;;;1.73;0.77;;;;;;;12.94;51.37;97672.75;4956363;28;20129;-77
2023/11/18 04:01:01;;;;;;;1.60;0.80;;;;;;;12.93;51.14;97675.53;4972705;28;20031;-77
2023/11/18 04:03:27;;;;;;;1.10;0.70;;;;;;;12.97;50.94;97677.66;4972500;28;20050;-77
2023/11/18 04:05:52;;;;;;;2.22;0.93;;;;;;;12.92;50.67;97679.09;4972665;28;20133;-79
2023/11/18 04:08:18;;;;;;;1.98;0.90;;;;;;;12.98;50.31;97686.34;4988591;28;20467;-78
2023/11/18 04:10:43;;;;;;;2.50;1.10;;;;;;;12.97;50.33;97676.84;4972717;28;20073;-79
2023/11/18 04:13:09;;;;;;;1.55;0.90;;;;;;;12.91;49.70;97669.63;4974164;28;20034;-77
2023/11/18 04:15:35;;;;;;;2.08;1.08;;;;;;;12.95;49.60;97681.41;4988571;28;20031;-78
2023/11/18 04:18:01;;;;;;;2.28;1.10;;;;;;;12.91;49.56;97685.34;4972480;28;20027;-76
2023/11/18 04:20:27;;;;;;;1.85;0.90;;;;;;;12.92;49.50;97690.41;4972564;28;20038;-77
2023/11/18 04:22:52;;;;;;;3.45;1.25;;;;;;;12.92;49.13;97705.28;4973055;28;20055;-76
2023/11/18 04:25:18;;;;;;;1.80;0.90;;;;;;;12.92;49.16;97707.91;4972614;28;20517;-76
2023/11/18 04:27:43;;;;;;;2.10;1.10;;;;;;;12.88;49.30;97696.94;4988950;28;20031;-76
2023/11/18 04:30:09;;;;;;;1.67;0.80;;;;;;;12.85;48.60;97707.72;4972366;28;20031;-76
2023/11/18 04:32:35;;;;;;;1.85;1.00;;;;;;;12.86;48.55;97706.75;4972263;28;20035;-78
2023/11/18 04:35:06;;;;;;;1.67;0.88;;;;;;;12.90;48.51;97707.25;4972559;28;20066;-79
2023/11/18 04:37:35;;;;;;;2.83;1.08;;;;;;;12.91;48.28;97719.38;4972301;28;20125;-79
2023/11/18 04:40:02;;;;;;;1.73;1.05;;;;;;;12.84;48.08;97700.88;4972294;28;20035;-78
2023/11/18 04:42:29;;;;;;;2.30;1.10;;;;;;;12.89;48.26;97698.59;4988081;28;20407;-79
2023/11/18 04:44:55;;;;;;;2.50;1.30;;;;;;;12.89;47.91;97695.13;4955833;28;20498;-77
2023/11/18 04:47:21;;;;;;;4.13;1.75;;;;;;;12.89;47.85;97695.13;4971895;28;20451;-80
2023/11/18 04:49:47;;;;;;;3.05;1.80;;;;;;;12.88;47.69;97690.91;4973041;28;20115;-79
2023/11/18 04:52:12;;;;;;;3.55;2.17;;;;;;;12.89;47.91;97697.75;4971688;28;20046;-78
2023/11/18 04:54:37;;;;;;;3.85;2.20;;;;;;;12.90;47.29;97699.41;4990891;28;20086;-80
2023/11/18 04:57:03;;;;;;;4.07;2.33;;;;;;;12.88;47.44;97680.41;4992434;28;20054;-79
2023/11/18 04:59:30;;;;;;;3.88;2.20;;;;;;;12.85;47.29;97674.50;4991714;28;20487;-79
2023/11/18 05:01:56;;;;;;;4.05;2.30;;;;;;;12.86;47.56;97670.09;4991861;28;20035;-79
2023/11/18 05:04:21;;;;;;;4.13;1.73;;;;;;;12.83;46.95;97681.69;4992120;28;20520;-80
2023/11/18 05:06:48;;;;;;;3.33;1.70;;;;;;;12.83;46.45;97720.97;4991722;28;20038;-80
2023/11/18 05:09:18;;;;;;;2.72;1.65;;;;;;;12.79;46.38;97719.66;4991982;28;20242;-79
2023/11/18 05:11:44;;;;;;;2.67;1.20;;;;;;;12.78;46.32;97728.50;4977981;28;20167;-79
2023/11/18 05:14:11;;;;;;;1.70;1.10;;;;;;;12.79;46.00;97735.38;4976665;28;20030;-79
2023/11/18 05:16:36;;;;;;;2.05;1.05;;;;;;;12.75;45.96;97715.72;4959310;28;20505;-79
2023/11/18 05:19:02;;;;;;;2.58;1.55;;;;;;;12.75;45.88;97752.38;4991453;28;20066;-78
2023/11/18 05:21:27;;;;;;;3.97;1.85;;;;;;;12.77;45.42;97760.06;4975060;28;20410;-78
2023/11/18 05:23:53;;;;;;;3.97;1.73;;;;;;;12.74;45.39;97732.38;4958996;28;20462;-79
2023/11/18 05:26:19;;;;;;;3.22;1.90;;;;;;;12.75;45.41;97741.09;4991479;28;20041;-78
2023/11/18 05:28:45;;;;;;;4.47;1.90;;;;;;;12.76;45.47;97745.31;4991413;28;20031;-80
2023/11/18 05:31:11;;;;;;;5.28;1.70;;;;;;;12.72;45.30;97744.81;4991208;28;20498;-78
2023/11/18 05:33:37;;;;;;;3.47;2.10;;;;;;;12.74;45.07;97750.72;4991012;28;20062;-79
2023/11/18 05:36:05;;;;;;;3.35;1.98;;;;;;;12.70;44.93;97757.25;4990944;28;20540;-78
2023/11/18 05:38:34;;;;;;;4.20;2.15;;;;;;;12.75;45.22;97757.59;4974784;28;20494;-78
2023/11/18 05:41:01;;;;;;;3.15;1.83;;;;;;;12.75;45.09;97765.47;4990652;28;20557;-79
2023/11/18 05:43:30;;;;;;;3.88;2.00;;;;;;;12.76;44.94;97769.72;4958864;28;20034;-79
2023/11/18 05:48:43;;;;;;;3.42;1.80;;;;;;;12.74;44.39;97748.09;4988435;28;20105;-79
2023/11/18 05:51:09;;;;;;;2.83;1.40;;;;;;;12.72;44.22;97741.38;4974491;28;20031;-79
2023/11/18 05:53:40;;;;;;;4.63;2.47;;;;;;;12.66;44.31;97743.63;4990487;28;20490;-78
2023/11/18 05:56:06;;;;;;;5.35;3.40;;;;;;;12.71;43.90;97744.97;4990712;28;20046;-79
2023/11/18 05:58:32;;;;;;;6.57;3.22;;;;;;;12.70;43.62;97740.69;4974531;28;20034;-79
2023/11/18 06:00:58;;;;;;;5.57;3.28;;;;;;;12.65;43.66;97725.47;4990558;28;20121;-79
2023/11/18 06:03:24;;;;;;;5.65;3.28;;;;;;;12.69;43.33;97742.50;4990441;28;20133;-79
2023/11/18 06:05:51;;;;;;;5.30;3.03;;;;;;;12.67;43.07;97745.28;4990390;28;20125;-79
2023/11/18 06:08:16;;;;;;;4.35;2.88;;;;;;;12.69;42.78;97741.69;4990568;28;20089;-78
2023/11/18 06:10:44;;;;;;;3.80;2.33;;;;;;;12.63;42.54;97727.41;4990625;28;20027;-79
2023/11/18 06:13:12;;;;;;;4.47;2.47;;;;;;;12.64;42.40;97734.31;4990120;28;20042;-78
2023/11/18 06:15:38;;;;;;;4.78;2.10;;;;;;;12.64;42.41;97737.72;4973984;28;20035;-79
2023/11/18 06:18:05;;;;;;;3.92;1.60;;;;;;;12.65;42.28;97749.03;4957765;28;20038;-79
2023/11/18 06:20:30;;;;;;;3.05;1.92;;;;;;;12.66;42.37;97735.78;4990256;28;20029;-80
2023/11/18 06:22:57;;;;;;;3.65;1.90;;;;;;;12.69;42.06;97757.41;4973947;28;20425;-78
2023/11/18 06:25:25;;;;;;;3.85;1.88;;;;;;;12.65;42.31;97742.00;4973672;28;20050;-80
2023/11/18 06:27:52;;;;;;;;;;;;;;;12.72;42.06;97744.00;4974529;28;20090;-78
2023/11/18 06:30:19;;;;;;;2.13;1.10;;;;;;;12.70;42.26;97738.09;4973998;28;19922;-78
2023/11/18 06:32:47;;;;;;;3.40;1.15;;;;;;;12.68;42.21;97735.63;4974214;28;20069;-80
2023/11/18 06:35:14;;;;;;;2.28;0.90;;;;;;;12.74;41.93;97747.28;4989813;28;20034;-79
2023/11/18 06:37:42;;;;;;;2.92;1.00;;;;;;;12.72;42.02;97742.19;4989753;28;20507;-78
2023/11/18 06:40:16;;;;;;;3.25;1.20;;;;;;;12.74;41.96;97749.91;4973553;28;20035;-79
2023/11/18 06:42:43;;;;;;;2.05;0.98;;;;;;;12.80;42.12;97749.28;4990286;28;20035;-78
2023/11/18 06:45:11;;;;;;;2.17;0.70;;;;;;;12.78;41.91;97731.09;4973846;28;20034;-80
2023/11/18 06:47:38;;;;;;;2.05;0.70;;;;;;;12.80;42.05;97716.06;4974023;28;20042;-78
2023/11/18 06:50:03;;;;;;;0.90;0.52;;;;;;;12.87;42.36;97723.28;4989648;28;20057;-79
2023/11/18 06:52:29;;;;;;;1.02;0.57;;;;;;;12.87;42.39;97731.97;4990053;28;20035;-79
2023/11/18 06:54:54;;;;;;;1.00;0.57;;;;;;;12.89;41.91;97731.81;4989711;28;20031;-80
2023/11/18 06:57:21;;;;;;;1.17;0.60;;;;;;;12.92;41.75;97726.25;4956637;28;20042;-80
2023/11/18 06:59:48;;;;;;;0.85;0.40;;;;;;;12.99;41.75;97711.56;4974332;28;20038;-79
2023/11/18 07:02:15;;;;;;;1.65;0.77;;;;;;;13.01;41.51;97714.84;4973189;28;20041;-81
2023/11/18 07:04:40;;;;;;;1.60;0.90;;;;;;;13.02;41.13;97727.78;4973100;28;20081;-80
2023/11/18 07:07:08;;;;;;;2.60;1.60;;;;;;;13.03;41.50;97718.94;4989422;28;20130;-80
2023/11/18 07:09:35;;;;;;;4.25;2.25;;;;;;;13.12;41.30;97709.31;4973026;28;20169;-80
2023/11/18 07:12:03;;;;;;;5.22;2.80;;;;;;;13.15;41.21;97705.56;4989530;28;20482;-81
2023/11/18 07:14:30;;;;;;;3.57;2.13;;;;;;;13.21;41.05;97674.28;4973463;28;20033;-81
2023/11/18 07:16:55;;;;;;;3.70;2.25;;;;;;;13.31;41.29;97679.38;4972751;28;20125;-80
2023/11/18 07:19:21;;;;;;;3.65;1.90;;;;;;;13.35;40.76;97667.66;4973291;28;20495;-81
2023/11/18 07:21:47;;;;;;;3.75;2.10;;;;;;;13.31;40.79;97691.69;4972673;28;20062;-80
2023/11/18 07:24:13;;;;;;;4.25;2.20;;;;;;;13.33;40.54;97723.81;4974840;28;20467;-79
2023/11/18 07:26:38;;;;;;;3.95;2.25;;;;;;;13.36;40.54;97740.06;4989554;28;20062;-79
2023/11/18 07:29:07;;;;;;;3.63;1.80;;;;;;;13.32;40.89;97733.47;4974398;28;20027;-79
2023/11/18 07:31:35;;;;;;;3.15;1.63;;;;;;;13.32;40.58;97733.47;4973304;28;20030;-79
2023/11/18 07:34:02;;;;;;;4.05;1.98;;;;;;;13.33;40.60;97747.41;4972985;28;20402;-79
2023/11/18 07:36:28;;;;;;;2.70;1.70;;;;;;;13.33;40.60;97753.50;4957415;28;20451;-78
2023/11/18 07:38:55;;;;;;;2.70;1.58;;;;;;;13.28;40.79;97744.41;4972741;28;20037;-80
2023/11/18 07:41:27;;;;;;;2.75;1.38;;;;;;;13.30;40.93;97735.44;4973104;28;20513;-80
2023/11/18 07:43:55;;;;;;;2.53;1.50;;;;;;;13.36;40.49;97744.47;4957532;28;20038;-81
2023/11/18 07:46:25;;;;;;;2.47;1.10;;;;;;;13.30;40.72;97719.69;4989105;28;20038;-81
2023/11/18 07:48:51;;;;;;;2.45;1.13;;;;;;;13.34;40.19;97731.53;4973046;28;20402;-81
2023/11/18 07:51:24;;;;;;;1.80;0.88;;;;;;;13.33;40.42;97714.19;4956519;28;20031;-82
2023/11/18 07:53:50;;;;;;;2.30;1.10;;;;;;;13.37;40.21;97719.91;4956916;28;20113;-81
2023/11/18 07:56:17;;;;;;;1.23;0.70;;;;;;;13.38;40.31;97718.94;4972502;28;20042;-84
2023/11/18 07:58:45;;;;;;;1.67;0.90;;;;;;;13.34;40.41;97696.63;4956424;28;20030;-81
2023/11/18 08:01:12;;;;;;;1.23;0.68;;;;;;;13.38;40.40;97693.53;4972647;28;20034;-81
2023/11/18 08:03:38;;;;;;;3.42;0.65;;;;;;;13.37;40.45;97694.50;4972179;28;20046;-81
2023/11/18 08:06:06;;;;;;;1.50;0.63;;;;;;;13.39;40.68;97700.44;4956271;28;20098;-81
2023/11/18 08:08:32;;;;;;;0.80;0.50;;;;;;;13.42;40.36;97694.03;4988209;28;20081;-82
2023/11/18 08:10:59;;;;;;;2.42;0.65;;;;;;;13.40;40.44;97693.38;4972659;28;20046;-81
2023/11/18 08:13:25;;;;;;;1.35;0.50;;;;;;;13.45;40.20;97698.94;4972543;28;20102;-81
2023/11/18 08:15:51;;;;;;;1.67;0.50;;;;;;;13.51;40.11;97685.22;4972326;28;20074;-83
2023/11/18 08:18:21;;;;;;;1.02;0.50;;;;;;;13.54;39.43;97673.59;4972576;28;20031;-81
2023/11/18 08:20:47;;;;;;;1.20;0.50;;;;;;;13.56;39.51;97672.44;4988215;28;20039;-81
2023/11/18 08:23:13;;;;;;;1.13;0.50;;;;;;;13.59;39.24;97668.66;4956007;28;20238;-81
2023/11/18 08:25:40;;;;;;;0.80;0.40;;;;;;;13.71;39.30;97663.91;4972521;28;20359;-82
2023/11/18 08:28:07;;;;;;;0.68;0.30;;;;;;;13.82;38.79;97668.84;4956752;28;20081;-82
2023/11/18 08:30:35;;;;;;;2.17;0.47;;;;;;;13.97;38.25;97676.88;4976184;28;20110;-83
2023/11/18 08:33:03;;;;;;;0.82;0.30;;;;;;;14.20;38.04;97690.16;4976592;28;20510;-81
2023/11/18 08:35:29;;;;;;;0.70;0.33;;;;;;;14.41;37.76;97688.81;4976342;28;20117;-82
2023/11/18 08:37:55;;;;;;;1.13;0.50;;;;;;;14.62;37.71;97677.78;4976198;28;20595;-82
2023/11/18 08:40:21;;;;;;;0.75;0.50;;;;;;;14.75;37.29;97682.50;4991840;28;20034;-85
2023/11/18 08:42:51;;;;;;;4.38;1.83;;;;;;;14.98;36.87;97685.22;4992319;28;20030;-82
2023/11/18 08:45:18;;;;;;;3.30;1.85;;;;;;;15.14;36.50;97672.00;4959925;28;20039;-83
2023/11/18 08:47:48;;;;;;;4.00;2.10;;;;;;;15.39;36.18;97695.53;4976374;28;20406;-83
2023/11/18 08:50:14;;;;;;;4.38;2.38;;;;;;;15.58;35.70;97704.78;4976162;28;20055;-82
2023/11/18 08:52:43;;;;;;;4.75;2.72;;;;;;;15.71;35.30;97696.31;4960093;28;20050;-81
2023/11/18 08:55:17;;;;;;;5.00;2.33;;;;;;;15.81;35.05;97704.81;4959834;28;20144;-83
2023/11/18 08:57:59;;;;;;;3.92;2.20;;;;;;;15.87;34.93;97692.78;4975898;28;20038;-82
2023/11/18 09:00:47;;;;;;;3.10;2.10;;;;;;;16.07;34.48;97704.47;4961709;28;20482;-81
2023/11/18 09:03:17;;;;;;;3.08;1.63;;;;;;;16.35;34.12;97718.84;4976264;28;20265;-82
2023/11/18 09:05:59;;;;;;;3.20;1.90;;;;;;;16.45;33.81;97714.97;4991971;28;20035;-80
2023/11/18 09:08:29;;;;;;;2.42;1.30;;;;;;;16.42;33.56;97711.91;4978037;28;20039;-79
2023/11/18 09:10:55;;;;;;;4.15;1.40;;;;;;;16.38;42.20;97718.50;4992637;28;20031;-85
2023/11/18 09:13:31;;;;;;;4.57;1.42;;;;;;;16.26;39.23;97711.03;4975948;28;20042;-87
2023/11/18 09:16:03;;;;;;;2.15;1.20;;;;;;;16.10;39.82;97704.09;4977198;28;20034;-81
2023/11/18 09:18:33;;;;;;;4.63;1.05;;;;;;;16.15;43.96;97710.66;4981789;28;20049;-73
2023/11/18 09:21:05;;;;;;;7.47;0.98;;;;;;;16.22;47.17;97708.94;4977377;28;20046;-88
2023/11/18 09:23:31;;;;;;;5.28;1.02;;;;;;;16.27;47.94;97709.22;4992150;28;20038;-85
2023/11/18 09:25:57;;;;;;;17.52;1.40;;;;;;;16.32;48.21;97704.25;4978174;28;20031;-89
2023/11/18 09:28:28;;;;;;;4.82;1.00;;;;;;;16.19;44.94;97709.28;4982217;28;20125;-90
2023/11/18 09:31:02;;;;;;;4.07;0.90;;;;;;;16.08;46.38;97714.00;4982398;28;20038;-87
2023/11/18 09:33:33;;;;;;;8.18;0.90;;;;;;;16.03;46.69;97713.69;4991639;28;20114;-81
2023/11/18 09:36:02;;;;;;;4.65;0.73;;;;;;;15.91;43.65;97707.22;4975188;28;20529;-80
2023/11/18 09:38:29;;;;;;;3.58;0.63;;;;;;;15.76;42.17;97714.22;4975158;28;20081;-83
2023/11/18 09:40:54;;;;;;;1.85;0.55;;;;;;;15.50;40.81;97694.31;4959158;28;20078;-81
2023/11/18 09:43:23;;;;;;;7.07;0.75;;;;;;;15.48;40.00;97701.56;4975903;28;20065;-83
2023/11/18 09:45:55;;;;;;;4.07;0.60;;;;;;;15.29;38.80;97687.03;4976448;28;21242;-83
2023/11/18 09:48:40;;;;;;;1.58;0.52;;;;;;;15.19;38.60;97692.50;4975309;28;20121;-86
2023/11/18 09:51:07;;;;;;;0.52;0.30;;;;;;;15.14;38.04;97690.41;4962211;28;20027;-84
2023/11/18 09:53:37;;;;;;;1.00;0.60;;;;;;;15.15;37.52;97684.16;4992428;28;20109;-83
2023/11/18 09:56:18;;;;;;;3.83;0.70;;;;;;;15.03;37.31;97675.00;4976554;28;20402;-83
2023/11/18 09:58:48;;;;;;;1.65;0.93;;;;;;;15.09;37.13;97665.63;4976125;28;20551;-85
2023/11/18 10:01:18;;;;;;;3.15;0.90;;;;;;;14.99;36.65;97684.22;4975966;28;20035;-85
2023/11/18 10:03:45;;;;;;;2.63;0.90;;;;;;;14.92;36.53;97647.31;4975618;28;20105;-83
2023/11/18 10:06:12;;;;;;;3.10;1.10;;;;;;;14.87;36.19;97654.88;4977101;28;20122;-84
2023/11/18 10:08:38;;;;;;;1.35;0.73;;;;;;;14.87;36.08;97648.81;4975601;28;20027;-85
2023/11/18 10:11:08;;;;;;;2.47;1.10;;;;;;;14.84;35.88;97665.72;4975593;28;20513;-87
2023/11/18 10:13:34;;;;;;;2.53;1.40;;;;;;;14.81;35.70;97639.81;4995753;28;20031;-84
2023/11/18 10:16:04;;;;;;;8.07;1.50;;;;;;;14.80;35.58;97633.75;4980033;28;20030;-83
2023/11/18 10:18:34;;;;;;;5.13;1.60;;;;;;;14.76;35.54;97648.19;4964452;28;20031;-82
2023/11/18 10:21:00;;;;;;;2.72;1.42;;;;;;;14.76;35.61;97624.53;4974678;28;20491;-82
2023/11/18 10:23:27;;;;;;;4.20;2.30;;;;;;;14.79;35.51;97637.34;4974999;28;20069;-86
2023/11/18 10:25:58;;;;;;;5.68;3.10;;;;;;;14.77;35.48;97620.94;4977295;28;20042;-86
2023/11/18 10:28:49;;;;;;;6.25;3.00;;;;;;;14.77;35.24;97604.34;4981309;28;20070;-87
2023/11/18 10:31:18;;;;;;;4.45;2.70;;;;;;;14.76;35.37;97605.34;4974984;28;20038;-84
2023/11/18 10:33:44;;;;;;;4.20;2.50;;;;;;;14.71;35.24;97605.06;4942422;28;20514;-81
2023/11/18 10:36:25;;;;;;;12.48;1.30;;;;;;;15.28;54.25;97611.81;4956987;28;20043;-75
2023/11/18 10:38:53;;;;;;;12.57;1.30;;;;;;;15.36;50.16;97595.97;4972093;28;20458;-79
2023/11/18 10:41:19;;;;;;;12.13;1.10;;;;;;;15.29;47.29;97601.13;4971796;28;20034;-79
2023/11/18 10:43:50;;;;;;;13.35;1.52;;;;;;;15.20;45.76;97581.94;4972488;28;20042;-79
2023/11/18 10:46:16;;;;;;;6.60;0.80;;;;;;;15.11;44.18;97590.84;4940244;28;20042;-80
2023/11/18 10:48:47;;;;;;;5.20;0.70;;;;;;;15.03;43.26;97562.00;4955535;28;20169;-81
2023/11/18 10:51:26;;;;;;;5.50;0.70;;;;;;;14.93;41.98;97556.97;4954576;28;20035;-80
2023/11/18 10:53:58;;;;;;;2.40;0.80;;;;;;;14.87;40.96;97546.34;4971741;28;20031;-80
2023/11/18 10:56:28;;;;;;;3.78;0.57;;;;;;;14.80;40.43;97551.47;4971242;28;20046;-79
2023/11/18 10:59:00;;;;;;;3.03;0.52;;;;;;;14.72;39.79;97559.38;4955643;28;20119;-79
2023/11/18 11:01:33;;;;;;;3.63;0.55;;;;;;;14.60;38.80;97528.25;4971520;28;20517;-80
2023/11/18 11:03:58;;;;;;;2.60;0.68;;;;;;;14.51;38.48;97555.50;4971461;28;20044;-78
2023/11/18 11:06:24;;;;;;;1.45;0.30;;;;;;;14.37;37.86;97559.66;4939249;28;20038;-79
2023/11/18 11:08:51;;;;;;;0.40;0.20;;;;;;;14.35;37.45;97566.09;4925306;29;20035;-78
2023/11/18 11:11:25;;;;;;;0.98;0.20;;;;;;;14.30;37.44;97553.47;4936912;29;20558;-78
2023/11/18 11:13:56;;;;;;;0.93;0.52;;;;;;;14.18;37.39;97562.69;4953356;29;20122;-77
2023/11/18 11:16:23;;;;;;;2.38;0.32;;;;;;;14.15;36.98;97571.72;4953249;28;20043;-77
2023/11/18 11:18:55;;;;;;;0.63;0.10;;;;;;;14.10;37.00;97563.53;4953179;28;20039;-78
2023/11/18 11:21:28;;;;;;;2.15;0.32;;;;;;;14.06;36.92;97555.19;4936578;29;20058;-79
2023/11/18 11:23:57;;;;;;;1.63;0.20;;;;;;;14.01;36.82;97546.16;4953735;29;20640;-84
2023/11/18 11:26:42;;;;;;;1.20;0.30;;;;;;;13.98;36.60;97543.88;4937324;29;20040;-85
2023/11/18 11:29:17;;;;;;;0.85;0.50;;;;;;;13.93;36.83;97536.50;4953984;29;20059;-87
2023/11/18 11:31:43;;;;;;;1.42;0.80;;;;;;;13.89;36.73;97545.72;4973221;28;20034;-80
2023/11/18 11:34:20;;;;;;;1.80;0.80;;;;;;;13.93;49.08;97529.47;4988970;28;20497;-78
2023/11/18 11:36:50;;;;;;;4.35;1.23;;;;;;;14.01;43.33;97546.16;4988039;28;20058;-76
2023/11/18 11:39:21;;;;;;;3.13;1.00;;;;;;;14.01;41.57;97530.44;4979024;28;20138;-84